Time;durP1;ratioP1;P1;durP2;ratioP2;P2;SDS_P1;SDS_P2;PMS_P1;PMS_P2;Temp;Humidity;BMP_temperature;BMP_pressure;BME280_temperature;BME280_humidity;BME280_pressure;Samples;Min_cycle;Max_cycle;Signal;HPM_P1;HPM_P2
2024/03/19 00:01:59;;;;;;;48.70;24.50;;;;;;;2.89;63.11;101000.83;111001;1255;21951;-71
2024/03/19 00:04:28;;;;;;;39.00;25.50;;;;;;;2.87;63.18;100998.09;110965;1255;21993;-71
2024/03/19 00:06:57;;;;;;;48.50;26.60;;;;;;;2.84;63.20;100995.73;111059;1255;21965;-71
2024/03/19 00:09:26;;;;;;;58.80;29.60;;;;;;;2.81;63.33;100997.21;111029;1254;21952;-71
2024/03/19 00:11:56;;;;;;;45.60;27.20;;;;;;;2.76;63.38;100992.82;111067;1245;21943;-70
2024/03/19 00:35:24;;;;;;;38.10;25.10;;;;;;;2.25;64.55;101003.91;110933;1255;23167;-72
2024/03/19 00:37:53;;;;;;;37.80;27.40;;;;;;;2.29;64.52;101005.36;110972;1255;23693;-71
2024/03/19 00:40:22;;;;;;;38.50;27.60;;;;;;;2.32;64.51;101006.85;110985;1245;24332;-73
2024/03/19 00:42:51;;;;;;;35.80;26.60;;;;;;;2.34;64.76;101009.08;111142;1255;22032;-72
2024/03/19 00:45:20;;;;;;;42.70;28.30;;;;;;;2.36;64.51;101013.54;111152;1255;23693;-72
2024/03/19 00:47:49;;;;;;;39.00;26.70;;;;;;;2.36;64.54;101008.48;111392;1255;22433;-71
2024/03/19 00:50:19;;;;;;;46.20;28.70;;;;;;;2.36;64.65;101007.45;112356;1255;21978;-71
2024/03/19 00:52:49;;;;;;;41.30;27.80;;;;;;;2.37;64.85;101008.98;111945;1255;21927;-72
2024/03/19 00:55:18;;;;;;;43.80;30.20;;;;;;;2.41;65.02;101009.92;111083;1255;22004;-71
2024/03/19 00:57:47;;;;;;;41.10;28.20;;;;;;;2.45;65.16;101009.64;110967;1255;21953;-71
2024/03/19 01:00:18;;;;;;;45.20;28.40;;;;;;;2.47;65.08;101009.77;110962;1255;22029;-70
2024/03/19 01:02:47;;;;;;;43.60;29.10;;;;;;;2.50;65.07;101009.86;111057;1243;23012;-71
2024/03/19 01:05:16;;;;;;;36.90;28.60;;;;;;;2.53;65.31;101012.23;111060;1255;21950;-71
2024/03/19 01:07:45;;;;;;;38.00;27.00;;;;;;;2.53;65.35;101012.41;110937;1255;21956;-71
2024/03/19 01:10:15;;;;;;;40.40;26.50;;;;;;;2.52;65.41;101017.30;111006;1255;22028;-71
2024/03/19 01:12:44;;;;;;;31.40;22.40;;;;;;;2.53;65.53;101019.17;110991;1255;23724;-71
2024/03/19 01:15:13;;;;;;;31.00;23.60;;;;;;;2.53;65.39;101016.23;111078;1255;21955;-72
2024/03/19 01:17:42;;;;;;;31.70;23.60;;;;;;;2.53;65.56;101011.70;111024;1255;21956;-72
2024/03/19 01:20:11;;;;;;;31.60;24.00;;;;;;;2.54;65.66;101012.55;111085;1255;22022;-72
2024/03/19 01:27:52;;;;;;;29.70;20.30;;;;;;;2.42;66.05;101013.02;111017;1255;21966;-70
2024/03/19 01:30:21;;;;;;;31.20;23.00;;;;;;;2.46;66.04;101013.10;111139;1255;21959;-71
2024/03/19 01:32:50;;;;;;;30.90;23.10;;;;;;;2.48;66.09;101014.80;111095;1255;21992;-71
2024/03/19 01:35:19;;;;;;;25.30;21.10;;;;;;;2.51;66.09;101015.05;110970;1254;21955;-71
2024/03/19 01:37:49;;;;;;;24.70;20.30;;;;;;;2.54;66.20;101012.72;111031;1255;21970;-72
2024/03/19 01:40:18;;;;;;;27.70;21.20;;;;;;;2.57;66.18;101011.09;110975;1255;21954;-71
2024/03/19 01:42:47;;;;;;;36.80;20.70;;;;;;;2.59;66.28;101007.72;111050;1255;21974;-71
2024/03/19 01:45:17;;;;;;;24.90;19.60;;;;;;;2.61;66.27;101006.27;111075;1255;21957;-72
2024/03/19 01:47:46;;;;;;;23.70;19.10;;;;;;;2.62;66.50;101008.86;111110;1254;21964;-72
2024/03/19 01:50:15;;;;;;;21.30;18.60;;;;;;;2.63;66.47;101003.64;111027;1251;21952;-72
2024/03/19 01:52:50;;;;;;;19.90;17.90;;;;;;;2.63;66.57;101004.48;110979;1252;23013;-71
2024/03/19 01:55:22;;;;;;;21.10;18.30;;;;;;;2.65;66.72;101005.64;110989;1251;23689;-72
2024/03/19 01:57:52;;;;;;;22.50;18.00;;;;;;;2.67;66.64;101008.73;111038;1255;21970;-73
2024/03/19 02:00:21;;;;;;;22.00;17.50;;;;;;;2.68;66.73;101008.52;111020;1247;21962;-73
2024/03/19 02:02:50;;;;;;;21.40;17.00;;;;;;;2.68;66.75;101011.48;111031;1255;21961;-72
2024/03/19 02:05:20;;;;;;;19.50;16.40;;;;;;;2.67;66.68;101011.70;111112;1255;21955;-71
2024/03/19 02:07:49;;;;;;;31.10;19.30;;;;;;;2.67;66.71;101015.69;111243;1255;23035;-72
2024/03/19 02:10:18;;;;;;;20.70;17.90;;;;;;;2.66;66.99;101014.84;110969;1255;23757;-71
2024/03/19 02:12:47;;;;;;;20.80;18.00;;;;;;;2.66;67.04;101018.32;111099;1255;21993;-72
2024/03/19 02:15:16;;;;;;;22.60;17.90;;;;;;;2.68;66.99;101017.04;111022;1254;21965;-71
2024/03/19 02:17:47;;;;;;;21.90;19.00;;;;;;;2.69;67.07;101014.77;110951;1255;21966;-71
2024/03/19 02:20:16;;;;;;;23.10;18.10;;;;;;;2.69;67.12;101009.70;111109;1255;23103;-70
2024/03/19 02:22:49;;;;;;;25.90;19.70;;;;;;;2.71;67.19;101013.11;111049;1255;21956;-72
2024/03/19 02:25:19;;;;;;;22.70;19.10;;;;;;;2.72;67.15;101012.95;111029;1255;21954;-71
2024/03/19 02:27:48;;;;;;;24.50;18.60;;;;;;;2.74;67.25;101011.67;111023;1251;23106;-71
2024/03/19 02:30:17;;;;;;;24.00;17.50;;;;;;;2.75;67.21;101016.86;111019;1255;22105;-72
2024/03/19 02:32:46;;;;;;;24.70;19.40;;;;;;;2.75;67.17;101020.16;110935;1254;22130;-72
2024/03/19 02:35:15;;;;;;;23.70;18.40;;;;;;;2.75;67.12;101022.26;110986;1255;21955;-71
2024/03/19 02:37:44;;;;;;;20.40;17.90;;;;;;;2.73;67.34;101021.09;111062;1255;23666;-71
2024/03/19 02:40:14;;;;;;;25.60;18.90;;;;;;;2.73;67.28;101020.05;110987;1249;21942;-70
2024/03/19 02:42:42;;;;;;;22.00;18.80;;;;;;;2.74;67.45;101025.05;111037;1254;21961;-71
2024/03/19 02:45:11;;;;;;;22.90;19.60;;;;;;;2.75;67.31;101022.93;111011;1254;21958;-72
2024/03/19 02:47:40;;;;;;;22.80;18.30;;;;;;;2.76;67.41;101023.09;110957;1255;22003;-70
2024/03/19 02:50:10;;;;;;;22.90;19.80;;;;;;;2.75;67.50;101023.11;111088;1255;21958;-70
2024/03/19 02:52:39;;;;;;;24.70;21.30;;;;;;;2.75;67.49;101029.55;110986;1254;22730;-71
2024/03/19 02:55:09;;;;;;;26.50;22.90;;;;;;;2.74;67.48;101029.41;110981;1255;22255;-70
2024/03/19 02:57:38;;;;;;;27.00;24.20;;;;;;;2.75;67.76;101031.81;110955;1255;22499;-72
2024/03/19 03:00:09;;;;;;;27.30;24.30;;;;;;;2.75;67.65;101036.34;111028;1255;21955;-72
2024/03/19 03:02:39;;;;;;;41.20;33.20;;;;;;;2.76;67.70;101037.52;111031;1255;22070;-72
2024/03/19 03:05:08;;;;;;;39.50;32.20;;;;;;;2.75;67.61;101039.98;111015;1255;21946;-71
2024/03/19 03:07:37;;;;;;;33.30;26.10;;;;;;;2.76;67.73;101044.48;111010;1255;23669;-71
2024/03/19 03:10:07;;;;;;;31.20;24.60;;;;;;;2.75;67.91;101043.10;111091;1255;21979;-71
2024/03/19 03:12:36;;;;;;;31.20;24.00;;;;;;;2.74;68.00;101047.14;111052;1255;23585;-72
2024/03/19 03:15:06;;;;;;;33.30;24.30;;;;;;;2.73;67.93;101050.45;111015;1255;21960;-72
2024/03/19 03:17:37;;;;;;;38.30;28.20;;;;;;;2.73;68.09;101052.90;111104;1255;23602;-71
2024/03/19 03:20:07;;;;;;;35.40;27.40;;;;;;;2.75;68.19;101054.60;111108;1255;24191;-74
2024/03/19 03:22:35;;;;;;;35.60;25.90;;;;;;;2.76;68.18;101056.83;111076;1255;22027;-71
2024/03/19 03:25:08;;;;;;;30.90;23.50;;;;;;;2.78;68.17;101058.32;111032;1252;21958;-71
2024/03/19 03:27:41;;;;;;;30.80;23.80;;;;;;;2.81;68.36;101059.64;111053;1255;22075;-72
2024/03/19 03:30:13;;;;;;;29.20;23.00;;;;;;;2.84;68.35;101061.14;111018;1255;22737;-71
2024/03/19 03:32:45;;;;;;;31.00;23.40;;;;;;;2.85;68.28;101066.14;111058;1255;21998;-71
2024/03/19 03:35:14;;;;;;;;;;;;;;;2.85;68.23;101066.83;110991;1255;22467;-71
2024/03/19 03:37:43;;;;;;;25.80;23.10;;;;;;;2.74;68.53;101067.13;110999;1255;23605;-72
2024/03/19 03:40:19;;;;;;;29.90;23.30;;;;;;;2.75;68.31;101069.88;110946;1255;181962;-72
2024/03/19 03:42:48;;;;;;;27.30;24.30;;;;;;;2.74;68.26;101070.80;111016;1255;22068;-71
2024/03/19 03:45:28;;;;;;;24.80;22.20;;;;;;;2.71;68.33;101074.52;110873;1255;21970;-72
2024/03/19 03:47:57;;;;;;;26.20;22.50;;;;;;;2.71;68.19;101076.09;110970;1255;21961;-72
2024/03/19 03:50:26;;;;;;;24.30;21.60;;;;;;;2.70;68.27;101076.11;110501;1260;21955;-71
2024/03/19 03:52:55;;;;;;;24.80;22.10;;;;;;;2.71;68.32;101083.56;110518;1260;21962;-72
2024/03/19 03:55:24;;;;;;;26.50;23.40;;;;;;;2.72;68.42;101083.71;110485;1260;21958;-71
2024/03/19 03:57:53;;;;;;;25.60;22.90;;;;;;;2.74;68.55;101083.82;110418;1260;21966;-71
2024/03/19 04:00:22;;;;;;;28.70;23.20;;;;;;;2.76;68.58;101082.38;110505;1260;21969;-72
2024/03/19 04:02:52;;;;;;;29.40;24.60;;;;;;;2.80;68.61;101088.54;110320;1260;21966;-72
2024/03/19 04:05:23;;;;;;;28.90;25.80;;;;;;;2.82;68.47;101092.48;110395;1261;23587;-71
2024/03/19 04:07:51;;;;;;;29.70;26.70;;;;;;;2.80;68.36;101094.27;110546;1256;22792;-73
2024/03/19 04:10:20;;;;;;;36.30;27.10;;;;;;;2.78;68.43;101093.80;110810;1256;23676;-72
2024/03/19 04:12:50;;;;;;;30.70;27.10;;;;;;;2.78;68.58;101091.88;110981;1246;21955;-71
2024/03/19 04:15:19;;;;;;;30.30;27.00;;;;;;;2.80;68.59;101096.01;110940;1255;21972;-72
2024/03/19 04:17:48;;;;;;;37.70;28.40;;;;;;;2.81;68.70;101100.67;111021;1255;22206;-73
2024/03/19 04:20:20;;;;;;;33.30;26.80;;;;;;;2.81;68.46;101095.45;111005;1255;21957;-72
2024/03/19 04:22:49;;;;;;;34.60;27.40;;;;;;;2.81;68.49;101102.08;110975;1254;21967;-71
2024/03/19 04:25:18;;;;;;;34.80;27.40;;;;;;;2.81;68.35;101101.40;110986;1255;21955;-72
2024/03/19 04:27:47;;;;;;;36.90;29.00;;;;;;;2.81;68.23;101105.90;111098;1255;24313;-73
2024/03/19 04:30:16;;;;;;;40.30;30.10;;;;;;;2.83;68.38;101108.30;110894;1255;21957;-71
2024/03/19 04:32:45;;;;;;;41.70;27.90;;;;;;;2.85;68.41;101108.41;111011;1255;21961;-72
2024/03/19 04:35:14;;;;;;;31.30;25.20;;;;;;;2.89;68.33;101107.61;110755;1257;21977;-72
2024/03/19 04:37:44;;;;;;;31.20;27.40;;;;;;;2.92;68.24;101113.62;110750;1257;22057;-72
2024/03/19 04:40:13;;;;;;;30.50;26.00;;;;;;;2.91;68.10;101115.20;110827;1256;23620;-72
2024/03/19 04:42:42;;;;;;;32.40;26.20;;;;;;;2.90;67.77;101118.37;110765;1257;21971;-72
2024/03/19 04:45:11;;;;;;;30.90;26.90;;;;;;;2.84;67.68;101121.65;111032;1255;21958;-71
2024/03/19 04:47:40;;;;;;;38.20;27.10;;;;;;;2.78;67.70;101128.41;111030;1255;21958;-71
2024/03/19 04:50:09;;;;;;;29.40;26.30;;;;;;;2.74;67.96;101131.28;111029;1255;21946;-73
2024/03/19 04:52:38;;;;;;;27.80;23.90;;;;;;;2.71;68.01;101134.52;110889;1255;23568;-72
2024/03/19 04:55:10;;;;;;;26.60;23.80;;;;;;;2.70;68.11;101141.15;110929;1255;22056;-71
2024/03/19 04:57:39;;;;;;;27.10;23.90;;;;;;;2.69;68.14;101144.83;111043;1255;21955;-72
2024/03/19 05:00:18;;;;;;;29.50;25.60;;;;;;;2.68;68.09;101143.79;110923;1255;22051;-73
2024/03/19 05:02:47;;;;;;;31.30;27.40;;;;;;;2.66;68.12;101145.23;111172;1255;21992;-72
2024/03/19 05:05:16;;;;;;;28.80;24.60;;;;;;;2.67;68.24;101148.00;111083;1255;23043;-74
2024/03/19 05:07:45;;;;;;;33.90;27.40;;;;;;;2.68;68.13;101151.78;110993;1255;23219;-72
2024/03/19 05:10:15;;;;;;;26.40;23.60;;;;;;;2.71;68.07;101151.89;111044;1255;23938;-73
2024/03/19 05:12:43;;;;;;;24.40;20.90;;;;;;;2.70;67.67;101154.70;111061;1255;22643;-72
2024/03/19 05:15:12;;;;;;;27.90;23.20;;;;;;;2.72;67.56;101157.27;110997;1255;21972;-72
2024/03/19 05:17:41;;;;;;;26.80;23.80;;;;;;;2.71;67.51;101160.41;110981;1255;21966;-72
2024/03/19 05:20:11;;;;;;;22.70;20.60;;;;;;;2.72;67.29;101161.44;111023;1255;21955;-72
2024/03/19 05:22:40;;;;;;;26.60;23.90;;;;;;;2.71;67.17;101162.84;111011;1255;21951;-72
2024/03/19 05:25:10;;;;;;;24.30;21.90;;;;;;;2.73;67.08;101167.84;110944;1255;22044;-72
2024/03/19 05:27:39;;;;;;;24.70;22.40;;;;;;;2.74;67.04;101170.77;110956;1255;22049;-72
2024/03/19 05:30:10;;;;;;;29.60;26.60;;;;;;;2.75;66.97;101167.64;110946;1255;21964;-72
2024/03/19 05:32:38;;;;;;;28.80;25.50;;;;;;;2.75;66.82;101169.52;110985;1255;21965;-73
2024/03/19 05:35:08;;;;;;;26.70;24.10;;;;;;;2.79;66.88;101167.69;110954;1255;22122;-72
2024/03/19 05:37:37;;;;;;;29.10;24.10;;;;;;;2.82;66.61;101171.61;110973;1255;22946;-72
2024/03/19 05:40:07;;;;;;;24.90;22.40;;;;;;;2.82;66.52;101171.97;110944;1255;22752;-72
2024/03/19 05:42:39;;;;;;;28.50;25.70;;;;;;;2.80;66.41;101177.23;111044;1255;21961;-72
2024/03/19 05:45:08;;;;;;;28.90;26.00;;;;;;;2.78;66.35;101184.06;111066;1255;22241;-72
2024/03/19 05:47:39;;;;;;;25.20;22.60;;;;;;;2.74;66.49;101184.50;111057;1246;21975;-72
2024/03/19 05:50:08;;;;;;;26.30;23.70;;;;;;;2.72;66.25;101183.16;111100;1255;22946;-72
2024/03/19 05:52:39;;;;;;;27.40;24.60;;;;;;;2.70;66.16;101185.98;110930;1255;21963;-71
2024/03/19 05:55:09;;;;;;;23.40;21.10;;;;;;;2.66;66.04;101185.92;111094;1255;21992;-72
2024/03/19 05:57:38;;;;;;;23.50;21.10;;;;;;;2.65;66.09;101190.12;110955;1255;21963;-72
2024/03/19 06:00:10;;;;;;;24.20;21.80;;;;;;;2.63;65.89;101188.42;111016;1255;21952;-72
2024/03/19 06:02:39;;;;;;;24.30;21.30;;;;;;;2.63;66.09;101188.62;111011;1255;21956;-73
2024/03/19 06:05:09;;;;;;;23.50;21.30;;;;;;;2.63;65.88;101190.86;111105;1255;21960;-72
2024/03/19 06:07:37;;;;;;;23.20;21.00;;;;;;;2.65;65.84;101194.64;111164;1255;21957;-72
2024/03/19 06:10:11;;;;;;;25.10;20.70;;;;;;;2.67;65.55;101197.38;111053;1255;22137;-72
2024/03/19 06:12:40;;;;;;;21.40;19.40;;;;;;;2.69;65.15;101193.51;111058;1255;22068;-71
2024/03/19 06:15:10;;;;;;;24.40;21.30;;;;;;;2.69;65.27;101192.45;111022;1255;21962;-74
2024/03/19 06:17:39;;;;;;;23.30;20.90;;;;;;;2.70;65.14;101194.18;111054;1245;21948;-72
2024/03/19 06:20:15;;;;;;;22.60;20.50;;;;;;;2.70;65.15;101192.26;111042;1255;21966;-72
2024/03/19 06:22:46;;;;;;;21.20;19.10;;;;;;;2.74;65.15;101195.80;111023;1255;22688;-72
2024/03/19 06:25:15;;;;;;;25.20;22.60;;;;;;;2.81;65.11;101196.34;111091;1255;21961;-73
2024/03/19 06:27:43;;;;;;;22.90;20.80;;;;;;;2.87;65.09;101199.14;111006;1255;21951;-73
2024/03/19 06:30:14;;;;;;;23.20;20.70;;;;;;;2.93;64.59;101201.25;111034;1255;21986;-74
2024/03/19 06:32:43;;;;;;;21.70;18.80;;;;;;;2.98;64.69;101202.52;111011;1255;22073;-72
2024/03/19 06:35:14;;;;;;;21.80;19.50;;;;;;;3.00;64.57;101201.95;111032;1255;21953;-72
2024/03/19 06:37:43;;;;;;;24.20;21.60;;;;;;;3.03;64.67;101203.45;110897;1255;23019;-72
2024/03/19 06:40:13;;;;;;;24.50;22.10;;;;;;;3.02;64.34;101205.04;111046;1255;21962;-71
2024/03/19 06:42:42;;;;;;;23.50;21.30;;;;;;;3.01;64.22;101208.55;111026;1255;21968;-70
2024/03/19 06:45:11;;;;;;;24.60;22.00;;;;;;;2.98;64.17;101204.10;110952;1255;21952;-72
2024/03/19 06:47:40;;;;;;;25.20;22.70;;;;;;;2.99;64.22;101210.85;110851;1257;22845;-70
2024/03/19 06:50:13;;;;;;;25.80;21.60;;;;;;;3.03;64.56;101211.82;110742;1257;21958;-71
2024/03/19 06:52:43;;;;;;;29.00;26.10;;;;;;;3.08;64.40;101210.13;111105;1257;21962;-71
2024/03/19 06:55:12;;;;;;;29.10;26.20;;;;;;;3.13;64.56;101210.86;110556;1257;21962;-71
2024/03/19 06:57:42;;;;;;;25.20;22.80;;;;;;;3.21;64.46;101213.44;110984;1255;21932;-70
2024/03/19 07:00:16;;;;;;;35.50;32.00;;;;;;;3.28;63.99;101215.85;111131;1255;21944;-72
2024/03/19 07:02:46;;;;;;;38.00;34.10;;;;;;;3.31;63.74;101219.79;111014;1255;23102;-71
2024/03/19 07:05:15;;;;;;;37.40;34.00;;;;;;;3.32;63.78;101219.25;111034;1255;21952;-71
2024/03/19 07:07:44;;;;;;;38.80;34.90;;;;;;;3.38;63.48;101220.45;111071;1255;21955;-70
2024/03/19 07:10:13;;;;;;;42.00;37.70;;;;;;;3.43;63.53;101216.66;110994;1255;21955;-70
2024/03/19 07:12:43;;;;;;;43.60;39.20;;;;;;;3.55;63.58;101220.02;110845;1255;21956;-71
2024/03/19 07:15:15;;;;;;;39.40;35.60;;;;;;;3.66;63.07;101226.85;110933;1255;21955;-70
2024/03/19 07:17:51;;;;;;;37.10;33.50;;;;;;;3.69;62.84;101229.20;110966;1255;21948;-72
2024/03/19 07:20:20;;;;;;;44.40;37.30;;;;;;;3.71;62.69;101234.55;111041;1255;21990;-72
2024/03/19 07:22:49;;;;;;;38.50;34.70;;;;;;;3.82;62.49;101236.16;111020;1255;21963;-70
2024/03/19 07:25:19;;;;;;;34.40;30.70;;;;;;;3.90;62.57;101235.77;110978;1248;21954;-72
2024/03/19 07:27:48;;;;;;;36.40;33.00;;;;;;;3.98;62.01;101234.83;110993;1255;21957;-70
2024/03/19 07:30:17;;;;;;;35.40;31.60;;;;;;;4.07;62.21;101235.45;111074;1255;22042;-71
2024/03/19 07:32:46;;;;;;;46.70;41.70;;;;;;;4.15;61.49;101234.51;110993;1255;21988;-71
2024/03/19 07:35:15;;;;;;;40.90;37.00;;;;;;;4.28;61.41;101238.15;110848;1255;21956;-71
2024/03/19 07:37:43;;;;;;;43.80;39.60;;;;;;;4.37;61.02;101241.36;111061;1255;21977;-70
2024/03/19 07:40:13;;;;;;;40.30;36.60;;;;;;;4.44;61.22;101242.39;111010;1245;21999;-71
2024/03/19 07:42:42;;;;;;;37.80;34.00;;;;;;;4.56;60.83;101243.39;110828;1256;21977;-71
2024/03/19 07:45:11;;;;;;;38.50;34.90;;;;;;;4.64;60.66;101248.41;110825;1256;21958;-70
2024/03/19 07:47:40;;;;;;;37.80;34.30;;;;;;;4.64;60.09;101248.74;110888;1254;21959;-71
2024/03/19 07:50:10;;;;;;;36.60;33.00;;;;;;;4.59;59.98;101249.42;110952;1255;23481;-72
2024/03/19 07:52:39;;;;;;;39.50;35.40;;;;;;;4.60;60.37;101247.48;110979;1255;22944;-70
2024/03/19 07:55:14;;;;;;;38.40;34.70;;;;;;;4.66;60.17;101248.16;110955;1255;21955;-70
2024/03/19 07:57:43;;;;;;;37.30;33.90;;;;;;;4.76;60.31;101251.31;111012;1254;21966;-70
2024/03/19 08:00:14;;;;;;;35.30;32.10;;;;;;;4.91;59.93;101255.23;111085;1255;21951;-72
2024/03/19 08:02:43;;;;;;;38.30;34.50;;;;;;;4.94;59.25;101256.15;111081;1254;21958;-71
2024/03/19 08:05:12;;;;;;;39.60;35.90;;;;;;;4.99;59.58;101256.88;111063;1255;21953;-70
2024/03/19 08:07:43;;;;;;;35.70;32.40;;;;;;;5.14;59.03;101255.33;111028;1255;21957;-73
2024/03/19 08:10:12;;;;;;;48.90;43.80;;;;;;;5.26;58.46;101258.60;111201;1255;21957;-71
2024/03/19 08:12:41;;;;;;;34.80;31.40;;;;;;;5.35;57.94;101258.64;111372;1254;22024;-70
2024/03/19 08:15:10;;;;;;;30.00;27.20;;;;;;;5.42;57.81;101259.77;110997;1255;22038;-72
2024/03/19 08:17:39;;;;;;;35.40;32.20;;;;;;;5.73;57.34;101263.46;110914;1255;21960;-70
2024/03/19 08:20:12;;;;;;;34.50;31.30;;;;;;;6.00;55.99;101262.33;111060;1255;21962;-70
2024/03/19 08:22:44;;;;;;;28.30;25.60;;;;;;;5.96;55.64;101267.36;110994;1255;21966;-71
2024/03/19 08:25:13;;;;;;;;;;;;;;;5.80;55.74;101262.83;111052;1255;21960;-71
2024/03/19 08:27:42;;;;;;;31.40;24.60;;;;;;;5.81;56.59;101260.37;110483;1260;24951;-70
2024/03/19 08:30:12;;;;;;;26.80;24.30;;;;;;;5.97;55.99;101264.73;110099;1266;21973;-70
2024/03/19 08:32:41;;;;;;;30.40;27.50;;;;;;;6.06;55.78;101266.48;110093;1266;22588;-70
2024/03/19 08:35:10;;;;;;;29.80;27.00;;;;;;;6.12;55.60;101268.17;110026;1266;23707;-70
2024/03/19 08:37:39;;;;;;;30.20;27.40;;;;;;;6.32;55.86;101266.20;110213;1266;21975;-70
2024/03/19 08:40:09;;;;;;;31.10;28.00;;;;;;;6.69;55.65;101266.88;110057;1266;21976;-69
2024/03/19 08:42:38;;;;;;;29.10;26.50;;;;;;;7.32;54.92;101265.88;110003;1266;23752;-69
2024/03/19 08:45:10;;;;;;;27.70;25.30;;;;;;;7.85;52.29;101263.10;110082;1261;22039;-70
2024/03/19 08:47:39;;;;;;;26.50;23.90;;;;;;;7.84;51.18;101259.63;110435;1261;22064;-69
2024/03/19 08:50:09;;;;;;;30.20;27.40;;;;;;;7.69;51.40;101262.23;110421;1261;21979;-69
2024/03/19 08:52:38;;;;;;;39.80;36.10;;;;;;;7.71;52.09;101261.09;110402;1261;21981;-70
2024/03/19 08:55:09;;;;;;;30.70;28.00;;;;;;;7.94;51.31;101264.64;110774;1255;21966;-70
2024/03/19 08:57:40;;;;;;;30.50;27.80;;;;;;;8.20;50.33;101268.38;111149;1255;21964;-68
2024/03/19 09:00:15;;;;;;;30.00;27.30;;;;;;;8.55;49.65;101269.61;111073;1255;21963;-70
2024/03/19 09:02:44;;;;;;;27.30;24.90;;;;;;;9.02;49.34;101270.66;111014;1255;22141;-70
2024/03/19 09:05:13;;;;;;;25.90;23.60;;;;;;;9.49;48.62;101270.11;111110;1255;21939;-69
2024/03/19 09:07:42;;;;;;;25.90;23.60;;;;;;;9.93;47.67;101271.34;111219;1255;21967;-70
2024/03/19 09:10:11;;;;;;;23.80;21.70;;;;;;;10.25;46.61;101273.18;111518;1254;21955;-72
2024/03/19 09:12:40;;;;;;;25.40;23.20;;;;;;;10.48;45.47;101275.99;111510;1255;21966;-74
2024/03/19 09:15:11;;;;;;;23.20;21.10;;;;;;;10.66;45.33;101272.68;111809;1260;21955;-72
2024/03/19 09:17:41;;;;;;;;;;;;;;;10.99;44.28;101277.56;111364;1260;23572;-71
2024/03/19 09:20:11;;;;;;;26.20;23.90;;;;;;;11.07;43.89;101280.42;110537;1260;21951;-71
2024/03/19 09:22:40;;;;;;;26.00;23.50;;;;;;;11.02;43.62;101276.67;110431;1260;23654;-71
2024/03/19 09:25:09;;;;;;;27.30;24.70;;;;;;;10.93;44.39;101275.23;110541;1260;22709;-71
2024/03/19 09:27:39;;;;;;;27.70;25.10;;;;;;;11.12;45.00;101274.85;110461;1259;21957;-72
2024/03/19 09:30:09;;;;;;;26.50;24.10;;;;;;;11.55;43.86;101273.41;110468;1260;21959;-71
2024/03/19 09:32:38;;;;;;;28.10;25.40;;;;;;;11.82;42.18;101273.94;110603;1256;23389;-73
2024/03/19 09:35:07;;;;;;;30.00;27.20;;;;;;;11.96;42.00;101276.26;110903;1256;21958;-70
2024/03/19 09:37:37;;;;;;;46.00;38.40;;;;;;;11.87;41.50;101272.52;110946;1255;21953;-71
2024/03/19 09:40:10;;;;;;;97.50;74.30;;;;;;;11.71;41.52;101277.03;110927;1256;21964;-72
2024/03/19 09:42:41;;;;;;;34.00;30.40;;;;;;;11.62;41.29;101271.72;110536;1256;21967;-71
2024/03/19 09:45:27;;;;;;;37.50;33.50;;;;;;;11.51;41.36;101273.61;110862;1255;21981;-72
2024/03/19 09:47:57;;;;;;;35.20;31.50;;;;;;;11.24;41.92;101277.13;110906;1256;21966;-71
2024/03/19 09:50:26;;;;;;;28.60;25.90;;;;;;;11.21;42.12;101275.73;111021;1254;21955;-71
2024/03/19 09:52:57;;;;;;;27.90;25.40;;;;;;;11.49;42.03;101275.89;111034;1255;23064;-72
2024/03/19 09:55:26;;;;;;;28.00;25.60;;;;;;;11.61;41.50;101276.02;110997;1255;21969;-72
2024/03/19 09:57:55;;;;;;;41.50;37.50;;;;;;;11.53;42.13;101272.30;110893;1255;21952;-70
2024/03/19 10:00:28;;;;;;;30.00;26.90;;;;;;;11.69;41.62;101269.40;110987;1255;22137;-70
2024/03/19 10:02:59;;;;;;;28.80;26.10;;;;;;;11.97;40.85;101267.91;110977;1254;22755;-72
2024/03/19 10:05:28;;;;;;;24.90;22.70;;;;;;;12.15;39.91;101267.66;110973;1255;21964;-72
2024/03/19 10:07:57;;;;;;;26.10;23.60;;;;;;;12.19;38.77;101268.32;110931;1255;21957;-71
2024/03/19 10:10:27;;;;;;;23.10;21.10;;;;;;;12.18;39.25;101266.95;111179;1255;24298;-71
2024/03/19 10:12:56;;;;;;;18.60;16.90;;;;;;;12.15;39.12;101267.34;111230;1255;21959;-71
2024/03/19 10:15:26;;;;;;;19.10;17.50;;;;;;;11.99;39.17;101265.65;110910;1254;21958;-73
2024/03/19 10:17:57;;;;;;;22.90;20.70;;;;;;;12.06;38.82;101261.84;110919;1255;21968;-70
2024/03/19 10:20:26;;;;;;;19.90;18.20;;;;;;;12.24;37.99;101259.70;111049;1244;22047;-71
2024/03/19 10:22:56;;;;;;;20.10;18.30;;;;;;;12.36;37.85;101258.73;110847;1255;21955;-71
2024/03/19 10:25:25;;;;;;;19.90;18.20;;;;;;;12.46;37.70;101254.24;111117;1255;22022;-71
2024/03/19 10:27:54;;;;;;;19.30;17.30;;;;;;;12.49;37.44;101254.91;111443;1255;22637;-71
2024/03/19 10:30:22;;;;;;;20.20;18.10;;;;;;;12.27;37.47;101256.84;111733;1255;22987;-70
2024/03/19 10:32:51;;;;;;;18.70;17.10;;;;;;;12.24;37.89;101254.77;111159;1255;21958;-70
2024/03/19 10:35:23;;;;;;;18.70;17.00;;;;;;;12.29;37.95;101254.42;110903;1255;23841;-68
2024/03/19 10:37:53;;;;;;;21.00;17.20;;;;;;;12.32;37.92;101254.10;112455;1254;22147;-67
2024/03/19 10:40:22;;;;;;;27.60;16.50;;;;;;;12.34;37.57;101253.05;110899;1248;22246;-67
2024/03/19 10:42:52;;;;;;;18.10;16.40;;;;;;;12.30;37.34;101253.14;111943;1256;23722;-67
2024/03/19 10:45:22;;;;;;;16.50;14.90;;;;;;;12.09;37.14;101257.08;111891;1256;23726;-66
2024/03/19 10:47:52;;;;;;;15.10;13.60;;;;;;;11.83;36.92;101254.27;111133;1256;22499;-66
2024/03/19 10:50:23;;;;;;;15.80;14.10;;;;;;;11.48;37.10;101255.63;111098;1256;24096;-68
2024/03/19 10:53:16;;;;;;;15.40;14.00;;;;;;;11.47;37.71;101256.27;110809;1256;21978;-68
2024/03/19 10:55:50;;;;;;;15.70;14.30;;;;;;;11.70;37.72;101251.86;112223;1254;21948;-68
2024/03/19 10:58:22;;;;;;;14.90;13.50;;;;;;;11.86;37.40;101256.73;110712;1256;21970;-67
2024/03/19 11:00:53;;;;;;;14.20;13.00;;;;;;;12.10;36.93;101254.88;110902;1256;21962;-67
2024/03/19 11:03:21;;;;;;;19.10;16.80;;;;;;;12.30;36.23;101254.90;111052;1254;23020;-68
2024/03/19 11:05:58;;;;;;;26.30;23.50;;;;;;;12.17;35.27;101253.45;112630;1256;21996;-68
2024/03/19 11:08:27;;;;;;;13.50;12.20;;;;;;;11.86;35.72;101254.23;111074;1244;22047;-68
2024/03/19 11:11:07;;;;;;;8.40;7.70;;;;;;;12.03;35.45;101251.10;111204;1256;21964;-68
2024/03/19 11:13:37;;;;;;;14.40;12.80;;;;;;;12.36;34.22;101253.27;112182;1256;21972;-67
2024/03/19 11:16:15;;;;;;;37.90;27.10;;;;;;;12.01;34.40;101253.14;111012;1256;21976;-67
2024/03/19 11:18:48;;;;;;;24.20;17.30;;;;;;;11.11;35.06;101253.04;111007;1256;23711;-69
2024/03/19 11:21:20;;;;;;;46.60;31.00;;;;;;;10.42;36.14;101255.85;110825;1256;21959;-68
2024/03/19 11:23:51;;;;;;;56.00;35.50;;;;;;;10.28;37.06;101254.53;110897;1256;22138;-70
2024/03/19 11:26:24;;;;;;;55.30;32.60;;;;;;;10.23;37.46;101253.05;110856;1256;24388;-72
2024/03/19 11:29:01;;;;;;;38.20;24.60;;;;;;;10.09;37.73;101252.73;110816;1256;21958;-69
2024/03/19 11:31:41;;;;;;;26.60;20.50;;;;;;;9.80;37.63;101248.43;110862;1256;21959;-70
2024/03/19 11:34:15;;;;;;;16.70;13.80;;;;;;;9.54;38.53;101246.13;110787;1256;21959;-68
2024/03/19 11:36:48;;;;;;;12.40;11.20;;;;;;;9.51;38.69;101243.81;111082;1256;22134;-71
2024/03/19 11:39:18;;;;;;;11.30;10.20;;;;;;;9.48;37.86;101244.11;110836;1256;21972;-69
2024/03/19 11:41:48;;;;;;;12.70;11.50;;;;;;;9.39;37.51;101246.14;110820;1256;24180;-69
2024/03/19 11:44:22;;;;;;;13.50;12.00;;;;;;;9.31;37.90;101246.75;110915;1256;21948;-69
2024/03/19 11:46:52;;;;;;;15.40;13.80;;;;;;;9.22;38.70;101245.43;110862;1244;23032;-68
2024/03/19 11:49:27;;;;;;;12.50;11.20;;;;;;;9.10;38.80;101244.27;110828;1256;22418;-71